createdAt,value
2019-03-22T00:00:32.162Z,13.43
2019-03-22T00:03:01.136Z,8.93
2019-03-22T00:05:30.594Z,8.90
2019-03-22T00:07:59.131Z,12.70
2019-03-22T00:10:27.895Z,15.47
2019-03-22T00:12:56.783Z,12.00
2019-03-22T00:15:25.341Z,12.90
2019-03-22T00:17:53.936Z,13.07
2019-03-22T00:20:22.659Z,17.30
2019-03-22T00:23:10.576Z,12.77
2019-03-22T00:25:39.206Z,13.87
2019-03-22T00:28:07.743Z,9.03
2019-03-22T00:30:36.301Z,9.67
2019-03-22T00:33:05.117Z,10.03
2019-03-22T00:35:33.714Z,14.87
2019-03-22T00:38:02.561Z,13.60
2019-03-22T00:40:31.192Z,15.30
2019-03-22T00:42:59.799Z,15.17
2019-03-22T00:45:28.444Z,8.03
2019-03-22T00:47:57.448Z,9.83
2019-03-22T00:50:26.089Z,11.47
2019-03-22T00:52:54.684Z,12.87
2019-03-22T00:55:23.235Z,8.73
2019-03-22T00:57:51.857Z,12.57
2019-03-22T01:00:20.448Z,10.47
2019-03-22T01:02:49.178Z,10.67
2019-03-22T01:05:18.307Z,11.13
2019-03-22T01:07:47.079Z,10.80
2019-03-22T01:10:15.718Z,9.70
2019-03-22T01:12:44.316Z,8.23
2019-03-22T01:15:14.546Z,14.13
2019-03-22T01:17:43.531Z,14.47
2019-03-22T01:20:13.164Z,17.53
2019-03-22T01:22:41.977Z,10.07
2019-03-22T01:25:11.531Z,11.87
2019-03-22T01:27:41.396Z,11.07
2019-03-22T01:30:13.401Z,10.30
2019-03-22T01:32:42.220Z,11.07
2019-03-22T01:35:11.695Z,11.13
2019-03-22T01:37:40.432Z,15.97
2019-03-22T01:40:11.602Z,12.00
2019-03-22T01:42:40.658Z,14.73
2019-03-22T01:45:12.000Z,7.97
2019-03-22T01:47:40.745Z,9.40
2019-03-22T01:50:28.771Z,11.20
2019-03-22T01:52:57.344Z,8.37
2019-03-22T01:55:26.134Z,11.33
2019-03-22T01:57:54.689Z,9.93
2019-03-22T02:00:23.363Z,7.37
2019-03-22T02:02:52.115Z,11.10
2019-03-22T02:05:22.524Z,9.33
2019-03-22T02:08:10.496Z,7.90
2019-03-22T02:10:39.108Z,8.43
2019-03-22T02:13:07.801Z,8.10
2019-03-22T02:15:36.380Z,9.87
2019-03-22T02:18:05.123Z,7.83
2019-03-22T02:20:33.841Z,8.83
2019-03-22T02:23:02.397Z,9.33
2019-03-22T02:25:30.980Z,9.80
2019-03-22T02:28:04.180Z,9.80
2019-03-22T02:30:29.790Z,7.53
2019-03-22T02:32:58.366Z,9.23
2019-03-22T02:35:29.338Z,8.50
2019-03-22T02:37:57.405Z,10.70
2019-03-22T02:40:25.991Z,9.87
2019-03-22T02:42:54.581Z,8.27
2019-03-22T02:45:23.295Z,10.70
2019-03-22T02:47:51.942Z,8.50
2019-03-22T02:50:20.656Z,8.03
2019-03-22T02:52:49.502Z,10.63
2019-03-22T02:57:54.335Z,6.97
2019-03-22T03:00:22.938Z,7.10
2019-03-22T03:02:51.536Z,8.20
2019-03-22T03:05:20.229Z,6.63
2019-03-22T03:07:48.839Z,8.17
2019-03-22T03:10:17.518Z,10.07
2019-03-22T03:12:46.603Z,8.33
2019-03-22T03:15:19.079Z,11.57
2019-03-22T03:17:47.730Z,11.93
2019-03-22T03:20:19.950Z,8.37
2019-03-22T03:22:48.595Z,8.40
2019-03-22T03:25:17.805Z,9.63
2019-03-22T03:27:46.900Z,10.03
2019-03-22T03:30:20.437Z,8.67
2019-03-22T03:32:49.385Z,10.90
2019-03-22T03:35:18.710Z,8.77
2019-03-22T03:37:47.717Z,9.03
2019-03-22T03:40:16.899Z,9.47
2019-03-22T03:42:45.637Z,7.90
2019-03-22T03:45:32.543Z,8.83
2019-03-22T03:48:03.165Z,10.60
2019-03-22T03:50:31.819Z,7.53
2019-03-22T03:53:00.423Z,10.03
2019-03-22T03:55:29.661Z,7.63
2019-03-22T03:57:58.242Z,9.07
2019-03-22T04:00:26.917Z,9.27
2019-03-22T04:02:55.656Z,9.33
2019-03-22T04:05:24.760Z,10.27
2019-03-22T04:07:53.892Z,10.73
2019-03-22T04:10:22.537Z,8.77
2019-03-22T04:12:51.131Z,8.40
2019-03-22T04:15:19.760Z,8.57
2019-03-22T04:17:48.347Z,11.63
2019-03-22T04:20:17.034Z,9.17
2019-03-22T04:22:45.923Z,9.73
2019-03-22T04:25:14.805Z,8.20
2019-03-22T04:27:43.346Z,11.83
2019-03-22T04:30:12.432Z,13.23
2019-03-22T04:32:41.189Z,8.10
2019-03-22T04:35:10.170Z,14.87
2019-03-22T04:37:38.938Z,9.33
2019-03-22T04:40:24.423Z,9.90
2019-03-22T04:42:53.174Z,6.37
2019-03-22T04:45:22.846Z,10.93
2019-03-22T04:47:54.542Z,6.93
2019-03-22T04:50:25.068Z,12.37
2019-03-22T04:52:53.865Z,12.00
2019-03-22T04:55:23.670Z,8.87
2019-03-22T04:57:53.598Z,9.60
2019-03-22T05:00:23.479Z,7.27
2019-03-22T05:02:53.113Z,8.93
2019-03-22T05:05:22.699Z,10.13
2019-03-22T05:07:52.771Z,9.37
2019-03-22T05:10:22.478Z,9.13
2019-03-22T05:12:52.106Z,11.40
2019-03-22T05:15:22.052Z,9.40
2019-03-22T05:17:51.081Z,9.53
2019-03-22T05:20:21.322Z,11.10
2019-03-22T05:22:51.418Z,10.43
2019-03-22T05:25:21.735Z,9.60
2019-03-22T05:27:51.657Z,12.43
2019-03-22T05:30:39.534Z,22.77
2019-03-22T05:33:08.222Z,13.43
2019-03-22T05:35:36.907Z,17.20
2019-03-22T05:38:05.454Z,13.87
2019-03-22T05:40:34.038Z,12.50
2019-03-22T05:43:02.511Z,12.33
2019-03-22T05:45:31.102Z,12.77
2019-03-22T05:47:59.675Z,14.07
2019-03-22T05:50:28.243Z,11.17
2019-03-22T05:52:56.825Z,9.17
2019-03-22T05:55:25.682Z,14.50
2019-03-22T05:57:54.266Z,10.67
2019-03-22T06:00:22.930Z,10.13
2019-03-22T06:02:51.498Z,10.60
2019-03-22T06:05:20.058Z,13.23
2019-03-22T06:07:48.824Z,9.03
2019-03-22T06:10:17.430Z,12.77
2019-03-22T06:12:46.084Z,10.03
2019-03-22T06:15:15.063Z,17.87
2019-03-22T06:17:51.724Z,12.47
2019-03-22T06:20:14.106Z,15.97
2019-03-22T06:22:42.704Z,16.60
2019-03-22T06:25:11.312Z,10.47
2019-03-22T06:27:39.974Z,8.80
2019-03-22T06:30:10.871Z,12.80
2019-03-22T06:32:40.999Z,12.60
2019-03-22T06:35:09.636Z,11.07
2019-03-22T06:37:38.279Z,9.50
2019-03-22T06:40:07.511Z,15.03
2019-03-22T06:42:55.531Z,14.57
2019-03-22T06:45:24.336Z,12.07
2019-03-22T06:47:54.012Z,16.17
2019-03-22T06:50:22.757Z,13.40
2019-03-22T06:52:52.126Z,12.77
2019-03-22T06:55:22.801Z,14.40
2019-03-22T06:57:53.130Z,16.10
2019-03-22T07:00:21.682Z,12.33
2019-03-22T07:02:50.294Z,17.00
2019-03-22T07:05:18.950Z,15.93
2019-03-22T07:07:47.525Z,15.47
2019-03-22T07:10:16.354Z,14.00
2019-03-22T07:12:44.962Z,17.17
2019-03-22T07:15:13.848Z,21.27
2019-03-22T07:17:42.571Z,20.40
2019-03-22T07:20:11.683Z,15.57
2019-03-22T07:22:40.420Z,27.50
2019-03-22T07:25:09.718Z,20.93
2019-03-22T07:27:38.339Z,19.17
2019-03-22T07:30:18.529Z,15.13
2019-03-22T07:32:43.304Z,17.67
2019-03-22T07:35:12.280Z,19.23
2019-03-22T07:37:41.037Z,14.07
2019-03-22T07:40:11.868Z,14.47
2019-03-22T07:42:40.644Z,13.57
2019-03-22T07:45:10.814Z,17.53
2019-03-22T07:47:39.503Z,18.90
2019-03-22T07:50:10.428Z,13.07
2019-03-22T07:52:39.094Z,13.23
2019-03-22T07:55:08.430Z,12.77
2019-03-22T07:57:37.002Z,12.97
2019-03-22T08:00:08.799Z,15.27
2019-03-22T08:02:37.533Z,11.50
2019-03-22T08:05:07.011Z,16.00
2019-03-22T08:07:35.799Z,14.77
2019-03-22T08:10:06.870Z,16.83
2019-03-22T08:12:35.564Z,18.57
2019-03-22T08:15:05.166Z,17.20
2019-03-22T08:17:33.849Z,17.67
2019-03-22T08:20:02.843Z,15.30
2019-03-22T08:22:31.484Z,15.20
2019-03-22T08:25:00.047Z,12.90
2019-03-22T08:27:28.954Z,14.30
2019-03-22T08:29:57.547Z,10.93
2019-03-22T08:32:26.211Z,10.00
2019-03-22T08:34:54.962Z,11.00
2019-03-22T08:37:23.597Z,14.53
2019-03-22T08:39:52.207Z,14.47
2019-03-22T08:42:20.915Z,12.00
2019-03-22T08:44:49.605Z,15.30
2019-03-22T08:47:18.368Z,13.47
2019-03-22T08:49:47.325Z,11.17
2019-03-22T08:52:16.094Z,17.30
2019-03-22T08:54:44.777Z,14.67
2019-03-22T08:57:13.444Z,19.10
2019-03-22T08:59:42.189Z,10.47
2019-03-22T09:02:11.248Z,12.50
2019-03-22T09:04:39.883Z,15.87
2019-03-22T09:07:08.853Z,15.90
2019-03-22T09:09:41.591Z,10.07
2019-03-22T09:12:07.846Z,12.77
2019-03-22T09:14:36.963Z,14.50
2019-03-22T09:17:05.850Z,12.07
2019-03-22T09:19:34.657Z,9.70
2019-03-22T09:22:03.320Z,12.70
2019-03-22T09:24:38.985Z,13.20
2019-03-22T09:27:02.965Z,12.23
2019-03-22T09:29:31.727Z,19.17
2019-03-22T09:32:00.354Z,14.53
2019-03-22T09:34:34.072Z,12.03
2019-03-22T09:36:59.418Z,14.97
2019-03-22T09:39:28.077Z,14.20
2019-03-22T09:41:56.839Z,9.27
2019-03-22T09:44:28.102Z,12.37
2019-03-22T09:46:56.100Z,10.93
2019-03-22T09:49:24.732Z,12.47
2019-03-22T09:51:55.197Z,11.33
2019-03-22T09:54:23.920Z,11.23
2019-03-22T09:56:52.765Z,8.50
2019-03-22T09:59:21.432Z,11.43
2019-03-22T10:01:50.103Z,8.57
2019-03-22T10:04:19.307Z,9.73
2019-03-22T10:06:48.488Z,6.43
2019-03-22T10:09:17.114Z,9.23
2019-03-22T10:11:45.899Z,10.53
2019-03-22T10:14:15.066Z,9.13
2019-03-22T10:16:47.457Z,7.72
2019-03-22T10:19:13.892Z,6.83
2019-03-22T10:21:42.559Z,14.60
2019-03-22T10:24:11.246Z,6.77
2019-03-22T10:26:52.089Z,7.30
2019-03-22T10:29:20.849Z,5.00
2019-03-22T10:31:49.821Z,9.90
2019-03-22T10:34:18.731Z,14.10
2019-03-22T10:36:47.623Z,7.43
2019-03-22T10:39:16.359Z,7.67
2019-03-22T10:41:45.174Z,7.87
2019-03-22T10:44:14.122Z,8.53
2019-03-22T10:46:44.858Z,6.77
2019-03-22T10:49:13.171Z,10.47
2019-03-22T10:51:41.832Z,6.13
2019-03-22T10:54:10.706Z,7.87
2019-03-22T10:56:58.803Z,7.43
2019-03-22T10:59:29.566Z,8.87
2019-03-22T11:02:03.678Z,6.70
2019-03-22T11:04:28.522Z,7.87
2019-03-22T11:06:57.209Z,6.43
2019-03-22T11:09:26.028Z,8.13
2019-03-22T11:11:56.389Z,8.90
2019-03-22T11:14:25.109Z,6.87
2019-03-22T11:16:53.722Z,8.77
2019-03-22T11:19:22.666Z,6.87
2019-03-22T11:21:53.047Z,5.63
2019-03-22T11:24:21.851Z,8.70
2019-03-22T11:26:50.724Z,6.27
2019-03-22T11:29:19.516Z,5.87
2019-03-22T11:31:48.587Z,4.83
2019-03-22T11:34:18.057Z,5.67
2019-03-22T11:36:46.714Z,6.67
2019-03-22T11:39:16.110Z,9.83
2019-03-22T11:41:48.240Z,6.87
2019-03-22T11:44:16.712Z,6.00
2019-03-22T11:47:04.794Z,8.07
2019-03-22T11:49:33.535Z,5.33
2019-03-22T11:52:02.302Z,11.63
2019-03-22T11:54:31.138Z,9.67
2019-03-22T11:57:01.719Z,6.50
2019-03-22T11:59:30.335Z,6.83
2019-03-22T12:02:01.316Z,6.30
2019-03-22T12:04:29.929Z,5.73
2019-03-22T12:07:00.162Z,7.60
2019-03-22T12:09:29.093Z,7.57
2019-03-22T12:11:59.257Z,7.97
2019-03-22T12:14:27.944Z,5.77
2019-03-22T12:16:56.848Z,8.50
2019-03-22T12:19:25.667Z,7.27
2019-03-22T12:21:54.468Z,8.53
2019-03-22T12:24:23.161Z,7.57
2019-03-22T12:26:52.051Z,6.00
2019-03-22T12:29:21.024Z,6.63
2019-03-22T12:31:49.610Z,6.27
2019-03-22T12:34:18.241Z,7.83
2019-03-22T12:36:46.855Z,9.20
2019-03-22T12:39:15.501Z,7.27
2019-03-22T12:41:44.318Z,5.37
2019-03-22T12:44:12.937Z,6.03
2019-03-22T12:46:41.844Z,10.27
2019-03-22T12:49:10.462Z,5.70
2019-03-22T12:51:39.035Z,5.40
2019-03-22T12:54:07.904Z,5.20
2019-03-22T12:56:36.441Z,5.23
2019-03-22T12:59:05.076Z,4.67
2019-03-22T13:01:33.758Z,7.60
2019-03-22T13:04:02.536Z,8.10
2019-03-22T13:06:31.418Z,12.50
2019-03-22T13:08:59.971Z,5.37
2019-03-22T13:11:28.710Z,5.07
2019-03-22T13:13:57.296Z,5.03
2019-03-22T13:16:25.918Z,6.80
2019-03-22T13:18:55.308Z,10.97
2019-03-22T13:21:24.016Z,4.80
2019-03-22T13:23:52.629Z,6.57
2019-03-22T13:26:21.315Z,7.67
2019-03-22T13:28:50.108Z,5.17
2019-03-22T13:31:18.781Z,5.50
2019-03-22T13:33:47.528Z,7.77
2019-03-22T13:36:17.110Z,5.53
2019-03-22T13:38:46.277Z,7.20
2019-03-22T13:41:14.867Z,8.20
2019-03-22T13:43:43.434Z,10.00
2019-03-22T13:46:12.086Z,6.13
2019-03-22T13:48:40.711Z,7.60
2019-03-22T13:51:09.435Z,7.03
2019-03-22T13:53:37.985Z,7.07
2019-03-22T13:56:06.595Z,4.83
2019-03-22T13:58:35.199Z,7.00
2019-03-22T14:01:03.851Z,6.70
2019-03-22T14:03:33.282Z,9.77
2019-03-22T14:06:02.117Z,11.53
2019-03-22T14:08:30.702Z,8.87
2019-03-22T14:10:59.387Z,5.43
2019-03-22T14:13:28.017Z,7.17
2019-03-22T14:15:56.557Z,9.60
2019-03-22T14:18:25.153Z,8.33
2019-03-22T14:20:54.386Z,9.60
2019-03-22T14:23:23.121Z,14.03
2019-03-22T14:25:51.842Z,10.20
2019-03-22T14:28:22.493Z,12.37
2019-03-22T14:30:51.035Z,7.80
2019-03-22T14:33:19.884Z,9.57
2019-03-22T14:35:48.629Z,11.57
2019-03-22T14:38:17.461Z,12.73
2019-03-22T14:40:46.337Z,10.00
2019-03-22T14:43:15.309Z,9.90
2019-03-22T14:45:44.242Z,12.27
2019-03-22T14:48:13.310Z,8.77
2019-03-22T14:50:42.102Z,10.17
2019-03-22T14:53:12.247Z,9.67
2019-03-22T14:55:41.236Z,10.23
2019-03-22T14:58:09.864Z,8.80
2019-03-22T15:00:38.552Z,10.60
2019-03-22T15:03:08.807Z,9.83
2019-03-22T15:05:37.492Z,10.87
2019-03-22T15:08:06.537Z,8.97
2019-03-22T15:10:35.363Z,10.27
2019-03-22T15:13:04.194Z,12.63
2019-03-22T15:15:37.796Z,10.80
2019-03-22T15:18:26.634Z,10.07
2019-03-22T15:21:13.414Z,10.13
2019-03-22T15:24:03.475Z,9.93
2019-03-22T15:26:40.249Z,10.57
2019-03-22T15:29:26.971Z,11.27
2019-03-22T15:32:13.617Z,9.87
2019-03-22T15:34:56.040Z,10.00
2019-03-22T15:37:42.754Z,7.67
2019-03-22T15:40:11.434Z,11.30
2019-03-22T15:42:40.142Z,11.87
2019-03-22T15:45:10.306Z,8.70
2019-03-22T15:47:39.306Z,11.73
2019-03-22T15:50:10.895Z,9.67
2019-03-22T15:52:41.619Z,12.73
2019-03-22T15:55:10.735Z,11.77
2019-03-22T15:57:40.620Z,11.67
2019-03-22T16:00:15.836Z,11.50
2019-03-22T16:02:44.547Z,14.73
2019-03-22T16:05:14.109Z,11.40
2019-03-22T16:07:42.697Z,10.20
2019-03-22T16:10:12.070Z,10.00
2019-03-22T16:12:41.076Z,10.80
2019-03-22T16:15:12.236Z,9.87
2019-03-22T16:17:40.938Z,10.80
2019-03-22T16:20:12.826Z,11.47
2019-03-22T16:23:00.975Z,12.17
2019-03-22T16:25:29.554Z,14.23
2019-03-22T16:27:59.294Z,11.50
2019-03-22T16:30:27.984Z,14.27
2019-03-22T16:32:56.844Z,12.17
2019-03-22T16:35:25.410Z,12.70
2019-03-22T16:37:54.090Z,17.13
2019-03-22T16:40:24.414Z,11.37
2019-03-22T16:42:53.433Z,11.70
2019-03-22T16:45:37.021Z,13.13
2019-03-22T16:48:06.102Z,14.57
2019-03-22T16:50:34.770Z,13.67
2019-03-22T16:53:03.393Z,12.97
2019-03-22T16:55:34.254Z,12.43
2019-03-22T16:58:02.994Z,11.20
2019-03-22T17:00:31.646Z,12.10
2019-03-22T17:03:07.054Z,15.13
2019-03-22T17:05:36.187Z,14.97
2019-03-22T17:08:05.362Z,12.77
2019-03-22T17:10:34.098Z,13.07
2019-03-22T17:13:02.733Z,15.17
2019-03-22T17:15:31.561Z,21.17
2019-03-22T17:18:00.123Z,16.23
2019-03-22T17:20:28.858Z,15.33
2019-03-22T17:22:57.570Z,23.67
2019-03-22T17:25:26.222Z,19.30
2019-03-22T17:27:54.953Z,19.50
2019-03-22T17:30:23.625Z,21.50
2019-03-22T17:32:52.193Z,15.97
2019-03-22T17:35:20.875Z,20.27
2019-03-22T17:37:49.502Z,25.00
2019-03-22T17:40:18.234Z,16.00
2019-03-22T17:42:46.923Z,21.97
2019-03-22T17:45:17.455Z,22.07
2019-03-22T17:47:46.498Z,21.83
2019-03-22T17:50:16.038Z,25.47
2019-03-22T17:52:44.625Z,22.57
2019-03-22T17:55:13.752Z,27.20
2019-03-22T17:57:42.589Z,19.10
2019-03-22T18:00:18.003Z,17.93
2019-03-22T18:03:06.042Z,14.40
2019-03-22T18:05:34.741Z,23.23
2019-03-22T18:08:03.499Z,24.30
2019-03-22T18:10:32.209Z,29.67
2019-03-22T18:13:00.774Z,26.47
2019-03-22T18:15:31.318Z,24.13
2019-03-22T18:17:59.975Z,21.10
2019-03-22T18:20:28.646Z,20.97
2019-03-22T18:22:57.331Z,21.73
2019-03-22T18:25:25.988Z,17.57
2019-03-22T18:27:55.026Z,13.53
2019-03-22T18:30:23.572Z,19.13
2019-03-22T18:32:52.385Z,12.07
2019-03-22T18:35:21.021Z,15.43
2019-03-22T18:37:49.730Z,17.13
2019-03-22T18:40:18.428Z,19.87
2019-03-22T18:42:47.224Z,16.70
2019-03-22T18:45:16.072Z,12.53
2019-03-22T18:47:44.666Z,17.90
2019-03-22T18:50:14.247Z,15.63
2019-03-22T18:52:43.142Z,14.07
2019-03-22T18:55:12.008Z,18.63
2019-03-22T18:57:42.195Z,14.27
2019-03-22T19:00:15.691Z,15.50
2019-03-22T19:02:44.528Z,13.70
2019-03-22T19:05:13.840Z,16.57
2019-03-22T19:07:42.586Z,19.73
2019-03-22T19:10:15.807Z,19.63
2019-03-22T19:12:44.497Z,18.07
2019-03-22T19:15:16.380Z,16.87
2019-03-22T19:17:45.101Z,24.53
2019-03-22T19:20:15.475Z,22.67
2019-03-22T19:22:44.237Z,26.17
2019-03-22T19:25:14.531Z,18.20
2019-03-22T19:27:43.588Z,24.00
2019-03-22T19:30:15.147Z,23.07
2019-03-22T19:33:03.064Z,22.97
2019-03-22T19:35:31.649Z,23.00
2019-03-22T19:38:00.355Z,20.83
2019-03-22T19:40:29.143Z,24.40
2019-03-22T19:42:58.201Z,19.13
2019-03-22T19:45:26.810Z,23.17
2019-03-22T19:47:55.389Z,24.47
2019-03-22T19:50:23.958Z,22.53
2019-03-22T19:52:52.630Z,20.63
2019-03-22T19:55:21.202Z,28.20
2019-03-22T19:57:49.889Z,19.63
2019-03-22T20:00:19.642Z,23.87
2019-03-22T20:02:49.245Z,22.20
2019-03-22T20:05:32.385Z,21.40
2019-03-22T20:08:02.327Z,20.07
2019-03-22T20:10:31.083Z,21.50
2019-03-22T20:13:19.027Z,18.07
2019-03-22T20:15:59.863Z,20.63
2019-03-22T20:18:28.827Z,18.47
2019-03-22T20:20:57.438Z,19.70
2019-03-22T20:23:26.509Z,17.57
2019-03-22T20:25:55.093Z,20.63
2019-03-22T20:28:23.711Z,19.40
2019-03-22T20:30:52.469Z,24.20
2019-03-22T20:33:21.050Z,18.90
2019-03-22T20:35:49.939Z,21.27
2019-03-22T20:38:18.518Z,19.30
2019-03-22T20:40:47.236Z,19.33
2019-03-22T20:43:16.009Z,21.93
2019-03-22T20:45:44.548Z,20.13
2019-03-22T20:48:13.214Z,15.83
2019-03-22T20:50:41.841Z,17.87
2019-03-22T20:53:10.574Z,26.10
2019-03-22T20:55:39.259Z,24.77
2019-03-22T20:58:07.946Z,20.13
2019-03-22T21:00:36.532Z,16.37
2019-03-22T21:03:05.362Z,17.20
2019-03-22T21:05:34.109Z,18.27
2019-03-22T21:08:03.080Z,25.27
2019-03-22T21:10:31.694Z,20.13
2019-03-22T21:13:00.275Z,19.97
2019-03-22T21:15:30.686Z,23.30
2019-03-22T21:17:59.376Z,19.53
2019-03-22T21:20:28.115Z,18.77
2019-03-22T21:22:58.184Z,15.63
2019-03-22T21:25:26.766Z,17.67
2019-03-22T21:27:55.333Z,15.90
2019-03-22T21:30:24.088Z,18.70
2019-03-22T21:32:52.908Z,21.67
2019-03-22T21:35:23.026Z,15.80
2019-03-22T21:37:51.935Z,16.30
2019-03-22T21:40:20.602Z,18.90
2019-03-22T21:42:49.550Z,19.67
2019-03-22T21:45:18.331Z,17.63
2019-03-22T21:47:48.503Z,16.33
2019-03-22T21:50:17.442Z,18.60
2019-03-22T21:52:46.082Z,18.67
2019-03-22T21:55:14.975Z,16.80
2019-03-22T21:57:43.666Z,17.90
2019-03-22T22:02:44.260Z,18.53
2019-03-22T22:05:12.966Z,22.53
2019-03-22T22:07:41.550Z,17.73
2019-03-22T22:10:11.089Z,17.37
2019-03-22T22:12:39.651Z,20.80
2019-03-22T22:15:13.139Z,22.17
2019-03-22T22:17:42.014Z,19.70
2019-03-22T22:20:11.298Z,18.50
2019-03-22T22:22:40.834Z,20.73
2019-03-22T22:25:09.950Z,22.63
2019-03-22T22:27:38.584Z,22.60
2019-03-22T22:30:10.041Z,21.30
2019-03-22T22:32:38.627Z,19.20
2019-03-22T22:35:10.491Z,22.73
2019-03-22T22:37:39.178Z,19.10
2019-03-22T22:40:10.265Z,25.73
2019-03-22T22:42:38.899Z,19.20
2019-03-22T22:45:09.559Z,20.07
2019-03-22T22:47:57.515Z,17.50
2019-03-22T22:50:26.190Z,17.53
2019-03-22T22:52:54.853Z,20.00
2019-03-22T22:55:23.470Z,18.97
2019-03-22T22:57:52.082Z,20.73
2019-03-22T23:00:20.775Z,16.63
2019-03-22T23:02:49.530Z,24.50
2019-03-22T23:05:19.283Z,17.57
2019-03-22T23:07:48.000Z,18.70
2019-03-22T23:10:16.730Z,21.47
2019-03-22T23:12:45.471Z,24.53
2019-03-22T23:15:16.084Z,19.43
2019-03-22T23:17:44.657Z,23.13
2019-03-22T23:20:13.341Z,18.20
2019-03-22T23:22:42.265Z,20.63
2019-03-22T23:25:11.551Z,19.60
2019-03-22T23:27:40.190Z,19.97
2019-03-22T23:30:13.517Z,18.57
2019-03-22T23:32:42.122Z,20.73
2019-03-22T23:35:11.555Z,19.03
2019-03-22T23:37:40.188Z,20.00
2019-03-22T23:40:09.759Z,18.93
2019-03-22T23:42:38.361Z,21.43
2019-03-22T23:45:11.966Z,17.47
2019-03-22T23:47:40.598Z,20.30
2019-03-22T23:50:09.997Z,19.63
2019-03-22T23:52:38.763Z,20.03
2019-03-22T23:55:08.026Z,15.40
2019-03-22T23:57:36.706Z,23.07
